createdAt,value
2022-08-08T00:00:52.081Z,14.57
2022-08-08T00:03:20.146Z,14.04
2022-08-08T00:06:04.034Z,14.39
2022-08-08T00:08:40.294Z,14.26
2022-08-08T00:11:18.818Z,14.34
2022-08-08T00:14:17.481Z,13.80
2022-08-08T00:16:48.877Z,14.24
2022-08-08T00:19:21.834Z,14.25
2022-08-08T00:21:59.321Z,14.25
2022-08-08T00:24:33.773Z,14.10
2022-08-08T00:27:07.036Z,14.16
2022-08-08T00:29:45.534Z,14.04
2022-08-08T00:32:35.460Z,14.04
2022-08-08T00:35:41.328Z,13.98
2022-08-08T00:38:51.817Z,14.03
2022-08-08T00:42:07.557Z,13.99
2022-08-08T00:45:21.719Z,13.35
2022-08-08T00:48:33.897Z,13.91
2022-08-08T00:51:42.134Z,13.89
2022-08-08T00:54:38.227Z,13.69
2022-08-08T00:57:44.013Z,13.69
2022-08-08T01:00:23.117Z,13.02
2022-08-08T01:04:01.282Z,13.80
2022-08-08T01:06:41.670Z,13.63
2022-08-08T01:09:41.216Z,13.34
2022-08-08T01:12:52.391Z,13.68
2022-08-08T01:15:57.672Z,13.70
2022-08-08T01:18:59.301Z,13.49
2022-08-08T01:22:32.490Z,13.53
2022-08-08T01:25:40.837Z,12.48
2022-08-08T01:28:36.974Z,13.61
2022-08-08T01:32:14.926Z,13.74
2022-08-08T01:35:11.262Z,13.53
2022-08-08T01:38:15.550Z,13.47
2022-08-08T01:41:00.042Z,13.08
2022-08-08T01:43:38.844Z,12.92
2022-08-08T01:46:32.822Z,13.08
2022-08-08T01:49:14.251Z,13.35
2022-08-08T01:54:05.043Z,12.76
2022-08-08T01:55:25.651Z,13.16
2022-08-08T01:58:19.186Z,13.19
2022-08-08T02:01:17.465Z,13.20
2022-08-08T02:04:04.041Z,13.16
2022-08-08T02:07:00.377Z,13.07
2022-08-08T02:10:04.239Z,13.04
2022-08-08T02:12:37.308Z,13.04
2022-08-08T02:15:12.976Z,12.92
2022-08-08T02:17:55.250Z,12.94
2022-08-08T02:21:01.090Z,12.98
2022-08-08T02:23:31.630Z,12.92
2022-08-08T02:26:11.011Z,12.93
2022-08-08T02:28:53.297Z,12.90
2022-08-08T02:31:54.111Z,11.76
2022-08-08T02:34:39.638Z,12.44
2022-08-08T02:37:53.554Z,12.62
2022-08-08T02:40:42.094Z,12.65
2022-08-08T02:44:38.280Z,12.71
2022-08-08T02:46:53.467Z,12.63
2022-08-08T02:49:58.896Z,12.53
2022-08-08T02:52:52.560Z,11.84
2022-08-08T02:56:08.590Z,12.51
2022-08-08T02:59:37.347Z,12.49
2022-08-08T03:02:53.722Z,12.42
2022-08-08T03:06:08.885Z,12.41
2022-08-08T03:09:21.095Z,12.53
2022-08-08T03:12:13.875Z,12.28
2022-08-08T03:15:59.849Z,12.27
2022-08-08T03:18:05.168Z,12.37
2022-08-08T03:20:43.670Z,11.90
2022-08-08T03:23:20.262Z,12.21
2022-08-08T03:25:50.268Z,11.83
2022-08-08T03:28:23.016Z,11.79
2022-08-08T03:31:07.888Z,11.43
2022-08-08T03:33:55.511Z,12.39
2022-08-08T03:36:30.384Z,11.76
2022-08-08T03:39:15.035Z,11.61
2022-08-08T03:42:27.061Z,12.11
2022-08-08T03:44:40.084Z,12.12
2022-08-08T03:47:20.079Z,12.06
2022-08-08T03:49:58.051Z,11.93
2022-08-08T03:52:34.003Z,11.65
2022-08-08T03:55:20.260Z,11.53
2022-08-08T03:58:30.933Z,11.74
2022-08-08T04:01:02.803Z,12.00
2022-08-08T04:03:57.235Z,11.68
2022-08-08T04:06:30.506Z,11.98
2022-08-08T04:09:07.002Z,11.83
2022-08-08T04:11:58.396Z,11.97
2022-08-08T04:14:45.787Z,11.72
2022-08-08T04:17:46.440Z,11.96
2022-08-08T04:20:09.000Z,11.47
2022-08-08T04:22:38.420Z,11.68
2022-08-08T04:25:13.151Z,11.57
2022-08-08T04:28:35.370Z,11.81
2022-08-08T04:30:36.475Z,12.97
2022-08-08T04:33:12.514Z,13.59
2022-08-08T04:35:51.367Z,14.05
2022-08-08T04:38:22.481Z,14.41
2022-08-08T04:40:54.853Z,14.60
2022-08-08T04:43:31.295Z,15.02
2022-08-08T04:46:18.609Z,14.30
2022-08-08T04:48:49.253Z,15.17
2022-08-08T04:51:23.545Z,15.12
2022-08-08T04:54:39.282Z,14.20
2022-08-08T04:56:54.820Z,14.44
2022-08-08T04:59:30.049Z,13.55
2022-08-08T05:02:00.941Z,13.76
2022-08-08T05:04:29.792Z,13.22
2022-08-08T05:06:57.903Z,13.74
2022-08-08T05:09:26.367Z,13.71
2022-08-08T05:11:57.892Z,13.96
2022-08-08T05:14:31.245Z,13.05
2022-08-08T05:17:08.793Z,14.09
2022-08-08T05:20:14.354Z,13.57
2022-08-08T05:22:31.643Z,14.09
2022-08-08T05:25:01.452Z,13.47
2022-08-08T05:27:33.357Z,13.91
2022-08-08T05:30:04.760Z,14.00
2022-08-08T05:32:42.509Z,12.53
2022-08-08T05:35:15.775Z,12.68
2022-08-08T05:37:53.224Z,13.55
2022-08-08T05:40:49.234Z,13.85
2022-08-08T05:44:02.054Z,14.15
2022-08-08T05:46:17.306Z,14.60
2022-08-08T05:48:52.185Z,14.57
2022-08-08T05:51:26.489Z,14.62
2022-08-08T05:54:28.737Z,13.91
2022-08-08T05:56:48.395Z,14.84
2022-08-08T05:59:59.793Z,14.64
2022-08-08T06:02:38.779Z,14.80
2022-08-08T06:05:32.016Z,15.05
2022-08-08T06:08:02.687Z,15.33
2022-08-08T06:10:41.153Z,14.60
2022-08-08T06:13:12.293Z,14.87
2022-08-08T06:15:50.575Z,14.44
2022-08-08T06:18:28.007Z,15.39
2022-08-08T06:20:58.939Z,14.45
2022-08-08T06:23:52.573Z,15.52
2022-08-08T06:26:41.409Z,15.65
2022-08-08T06:29:48.757Z,15.81
2022-08-08T06:32:10.860Z,15.78
2022-08-08T06:34:52.417Z,16.05
2022-08-08T06:37:40.731Z,16.34
2022-08-08T06:40:16.941Z,15.50
2022-08-08T06:42:56.033Z,15.67
2022-08-08T06:45:34.055Z,16.75
2022-08-08T06:48:04.540Z,17.04
2022-08-08T06:50:39.434Z,17.02
2022-08-08T06:53:17.045Z,16.23
2022-08-08T06:56:02.726Z,16.38
2022-08-08T06:58:36.983Z,17.46
2022-08-08T07:01:11.517Z,17.49
2022-08-08T07:04:37.286Z,17.56
2022-08-08T07:07:11.060Z,17.54
2022-08-08T07:10:00.929Z,17.87
2022-08-08T07:12:42.829Z,18.00
2022-08-08T07:15:32.316Z,17.90
2022-08-08T07:18:36.813Z,18.51
2022-08-08T07:21:02.219Z,17.94
2022-08-08T07:24:01.580Z,18.56
2022-08-08T07:26:35.431Z,18.86
2022-08-08T07:29:11.659Z,19.04
2022-08-08T07:31:50.304Z,18.42
2022-08-08T07:34:31.349Z,18.99
2022-08-08T07:37:11.485Z,19.27
2022-08-08T07:39:45.836Z,19.55
2022-08-08T07:42:33.179Z,19.68
2022-08-08T07:45:04.180Z,19.78
2022-08-08T07:47:39.139Z,20.03
2022-08-08T07:50:11.514Z,19.93
2022-08-08T07:52:44.691Z,19.77
2022-08-08T07:55:28.916Z,20.38
2022-08-08T07:58:17.944Z,20.74
2022-08-08T08:00:52.142Z,20.97
2022-08-08T08:03:43.522Z,20.95
2022-08-08T08:06:16.496Z,21.08
2022-08-08T08:08:52.010Z,21.16
2022-08-08T08:11:38.138Z,21.18
2022-08-08T08:14:19.535Z,21.59
2022-08-08T08:16:50.738Z,21.60
2022-08-08T08:19:32.057Z,21.91
2022-08-08T08:22:16.084Z,22.25
2022-08-08T08:25:08.060Z,22.37
2022-08-08T08:27:39.049Z,22.11
2022-08-08T08:30:16.445Z,22.56
2022-08-08T08:32:51.571Z,22.37
2022-08-08T08:35:30.084Z,21.98
2022-08-08T08:38:17.930Z,21.93
2022-08-08T08:40:52.469Z,22.37
2022-08-08T08:43:26.695Z,22.57
2022-08-08T08:46:03.664Z,22.91
2022-08-08T08:48:35.520Z,23.01
2022-08-08T08:51:05.300Z,22.45
2022-08-08T08:53:56.036Z,22.41
2022-08-08T08:56:29.671Z,22.72
2022-08-08T08:59:06.236Z,23.28
2022-08-08T09:01:45.513Z,22.70
2022-08-08T09:04:30.303Z,22.56
2022-08-08T09:07:11.966Z,22.89
2022-08-08T09:09:47.718Z,23.08
2022-08-08T09:12:27.394Z,23.45
2022-08-08T09:14:59.117Z,23.26
2022-08-08T09:17:41.732Z,23.05
2022-08-08T09:22:00.134Z,23.07
2022-08-08T09:23:11.421Z,23.68
2022-08-08T09:26:00.578Z,23.74
2022-08-08T09:28:38.816Z,24.19
2022-08-08T09:31:42.790Z,23.76
2022-08-08T09:34:34.730Z,24.18
2022-08-08T09:37:46.281Z,24.39
2022-08-08T09:40:11.094Z,24.53
2022-08-08T09:42:44.449Z,24.48
2022-08-08T09:45:55.246Z,24.78
2022-08-08T09:48:21.309Z,24.80
2022-08-08T09:50:56.012Z,24.40
2022-08-08T09:53:53.029Z,24.42
2022-08-08T09:56:22.105Z,24.25
2022-08-08T09:58:58.673Z,24.42
2022-08-08T10:01:59.649Z,24.29
2022-08-08T10:04:38.273Z,23.89
2022-08-08T10:07:15.870Z,23.54
2022-08-08T10:10:00.175Z,23.83
2022-08-08T10:12:38.588Z,23.22
2022-08-08T10:15:21.461Z,23.59
2022-08-08T10:18:06.496Z,24.02
2022-08-08T10:20:58.247Z,23.87
2022-08-08T10:23:44.013Z,23.50
2022-08-08T10:26:30.265Z,24.02
2022-08-08T10:29:04.344Z,23.92
2022-08-08T10:31:51.977Z,23.40
2022-08-08T10:34:22.963Z,23.83
2022-08-08T10:36:53.792Z,23.79
2022-08-08T10:39:43.692Z,23.38
2022-08-08T10:42:16.889Z,23.96
2022-08-08T10:44:46.069Z,24.17
2022-08-08T10:47:21.242Z,24.23
2022-08-08T10:50:01.968Z,24.25
2022-08-08T10:52:34.655Z,24.16
2022-08-08T10:55:06.966Z,24.25
2022-08-08T10:57:45.066Z,24.34
2022-08-08T11:00:23.218Z,24.28
2022-08-08T11:02:54.363Z,24.48
2022-08-08T11:05:27.434Z,24.28
2022-08-08T11:08:31.736Z,24.31
2022-08-08T11:11:08.300Z,24.10
2022-08-08T11:13:52.134Z,24.02
2022-08-08T11:16:34.484Z,23.97
2022-08-08T11:19:05.023Z,23.52
2022-08-08T11:21:37.913Z,24.00
2022-08-08T11:24:11.165Z,24.05
2022-08-08T11:26:53.819Z,24.16
2022-08-08T11:29:41.967Z,24.31
2022-08-08T11:32:19.357Z,24.31
2022-08-08T11:35:08.242Z,24.66
2022-08-08T11:38:38.547Z,24.39
2022-08-08T11:40:33.158Z,25.18
2022-08-08T11:43:04.919Z,24.91
2022-08-08T11:45:48.282Z,25.73
2022-08-08T11:48:22.174Z,25.72
2022-08-08T11:50:57.327Z,25.53
2022-08-08T11:53:25.879Z,25.74
2022-08-08T11:55:56.031Z,25.80
2022-08-08T11:58:33.965Z,25.56
2022-08-08T12:01:12.263Z,25.41
2022-08-08T12:03:50.170Z,24.77
2022-08-08T12:06:22.502Z,25.28
2022-08-08T12:08:52.343Z,25.25
2022-08-08T12:11:27.206Z,25.12
2022-08-08T12:14:04.981Z,24.52
2022-08-08T12:16:44.766Z,24.78
2022-08-08T12:19:15.403Z,24.69
2022-08-08T12:21:59.698Z,24.63
2022-08-08T12:24:31.391Z,24.35
2022-08-08T12:27:01.421Z,24.20
2022-08-08T12:29:42.143Z,24.13
2022-08-08T12:32:19.847Z,23.74
2022-08-08T12:35:13.575Z,23.50
2022-08-08T12:37:48.182Z,24.03
2022-08-08T12:40:56.086Z,24.14
2022-08-08T12:43:43.337Z,24.45
2022-08-08T12:46:19.275Z,24.18
2022-08-08T12:49:21.956Z,24.12
2022-08-08T12:51:49.871Z,24.19
2022-08-08T12:54:25.593Z,24.31
2022-08-08T12:56:55.065Z,24.48
2022-08-08T12:59:36.632Z,24.68
2022-08-08T13:02:28.500Z,24.94
2022-08-08T13:04:59.563Z,24.49
2022-08-08T13:08:03.129Z,24.81
2022-08-08T13:10:33.098Z,24.93
2022-08-08T13:13:06.231Z,24.17
2022-08-08T13:15:37.921Z,25.02
2022-08-08T13:18:13.684Z,24.94
2022-08-08T13:20:48.336Z,24.19
2022-08-08T13:23:41.293Z,24.71
2022-08-08T13:26:15.816Z,24.02
2022-08-08T13:28:48.883Z,25.05
2022-08-08T13:31:19.122Z,25.25
2022-08-08T13:33:49.998Z,25.31
2022-08-08T13:36:26.273Z,25.26
2022-08-08T13:39:00.142Z,24.86
2022-08-08T13:41:39.258Z,24.69
2022-08-08T13:44:13.170Z,25.18
2022-08-08T13:46:56.968Z,25.22
2022-08-08T13:50:37.006Z,25.25
2022-08-08T13:52:23.117Z,25.05
2022-08-08T13:55:07.564Z,25.10
2022-08-08T13:58:06.885Z,25.22
2022-08-08T14:00:24.879Z,25.38
2022-08-08T14:03:00.553Z,25.22
2022-08-08T14:05:34.157Z,25.06
2022-08-08T14:08:16.790Z,24.70
2022-08-08T14:10:56.527Z,24.78
2022-08-08T14:13:33.432Z,24.79
2022-08-08T14:16:07.981Z,25.00
2022-08-08T14:18:54.157Z,25.19
2022-08-08T14:21:39.691Z,25.26
2022-08-08T14:24:09.736Z,24.92
2022-08-08T14:26:46.136Z,25.27
2022-08-08T14:29:27.997Z,25.41
2022-08-08T14:32:10.529Z,25.27
2022-08-08T14:34:43.382Z,24.53
2022-08-08T14:37:12.976Z,24.60
2022-08-08T14:39:50.029Z,24.91
2022-08-08T14:42:27.186Z,24.77
2022-08-08T14:45:01.149Z,24.84
2022-08-08T14:47:36.293Z,24.67
2022-08-08T14:50:39.062Z,24.44
2022-08-08T14:53:13.278Z,24.91
2022-08-08T14:55:43.715Z,24.66
2022-08-08T14:58:19.689Z,24.46
2022-08-08T15:00:49.459Z,24.94
2022-08-08T15:03:18.428Z,25.04
2022-08-08T15:05:54.354Z,25.27
2022-08-08T15:08:35.542Z,25.36
2022-08-08T15:11:09.133Z,25.41
2022-08-08T15:13:40.493Z,25.21
2022-08-08T15:16:26.013Z,24.97
2022-08-08T15:18:56.257Z,25.13
2022-08-08T15:21:30.268Z,24.72
2022-08-08T15:23:58.902Z,25.27
2022-08-08T15:26:28.933Z,25.24
2022-08-08T15:28:58.366Z,25.10
2022-08-08T15:32:04.070Z,25.47
2022-08-08T15:34:29.618Z,25.48
2022-08-08T15:37:03.691Z,24.45
2022-08-08T15:39:37.976Z,24.91
2022-08-08T15:42:10.382Z,24.97
2022-08-08T15:44:42.975Z,25.26
2022-08-08T15:47:15.649Z,25.27
2022-08-08T15:49:48.634Z,25.45
2022-08-08T15:52:20.801Z,25.09
2022-08-08T15:54:51.589Z,25.00
2022-08-08T15:57:21.695Z,24.83
2022-08-08T16:00:10.970Z,25.04
2022-08-08T16:02:50.515Z,25.12
2022-08-08T16:05:21.297Z,25.14
2022-08-08T16:07:53.890Z,25.30
2022-08-08T16:13:10.234Z,25.37
2022-08-08T16:13:34.153Z,25.23
2022-08-08T16:16:09.173Z,25.20
2022-08-08T16:18:42.521Z,25.42
2022-08-08T16:21:25.937Z,25.12
2022-08-08T16:23:57.196Z,25.02
2022-08-08T16:26:32.949Z,24.79
2022-08-08T16:29:08.091Z,25.01
2022-08-08T16:31:40.343Z,25.17
2022-08-08T16:34:09.024Z,25.16
2022-08-08T16:36:38.017Z,24.93
2022-08-08T16:39:16.876Z,24.41
2022-08-08T16:42:01.387Z,25.11
2022-08-08T16:44:33.960Z,24.89
2022-08-08T16:47:17.273Z,25.00
2022-08-08T16:49:47.828Z,24.11
2022-08-08T16:55:01.179Z,24.71
2022-08-08T16:55:34.366Z,24.90
2022-08-08T16:58:13.968Z,24.70
2022-08-08T17:00:48.684Z,24.62
2022-08-08T17:03:24.512Z,24.85
2022-08-08T17:06:03.345Z,24.84
2022-08-08T17:08:31.720Z,25.00
2022-08-08T17:11:11.163Z,24.98
2022-08-08T17:13:50.172Z,25.01
2022-08-08T17:16:28.592Z,24.91
2022-08-08T17:18:56.874Z,24.89
2022-08-08T17:21:26.517Z,24.86
2022-08-08T17:24:00.903Z,24.69
2022-08-08T17:26:32.710Z,24.70
2022-08-08T17:29:04.371Z,24.50
2022-08-08T17:31:45.574Z,24.53
2022-08-08T17:34:49.367Z,24.57
2022-08-08T17:37:09.019Z,24.38
2022-08-08T17:40:03.953Z,24.29
2022-08-08T17:42:28.039Z,24.31
2022-08-08T17:44:58.311Z,24.25
2022-08-08T17:47:28.126Z,23.96
2022-08-08T17:50:07.895Z,23.99
2022-08-08T17:52:38.291Z,24.00
2022-08-08T17:56:03.555Z,24.02
2022-08-08T17:57:57.889Z,24.02
2022-08-08T18:00:30.602Z,23.91
2022-08-08T18:03:09.337Z,23.46
2022-08-08T18:05:49.077Z,23.77
2022-08-08T18:08:37.614Z,23.71
2022-08-08T18:11:11.895Z,23.57
2022-08-08T18:13:45.527Z,23.05
2022-08-08T18:16:20.803Z,23.51
2022-08-08T18:18:56.068Z,23.45
2022-08-08T18:21:59.026Z,23.27
2022-08-08T18:24:19.372Z,23.11
2022-08-08T18:26:53.802Z,23.24
2022-08-08T18:29:33.303Z,23.22
2022-08-08T18:32:07.402Z,23.13
2022-08-08T18:34:37.763Z,21.67
2022-08-08T18:37:09.227Z,22.94
2022-08-08T18:39:40.959Z,22.83
2022-08-08T18:42:15.674Z,22.75
2022-08-08T18:44:55.309Z,22.31
2022-08-08T18:47:24.426Z,22.29
2022-08-08T18:49:58.011Z,22.62
2022-08-08T18:52:28.117Z,22.50
2022-08-08T18:54:59.750Z,22.34
2022-08-08T18:57:42.141Z,22.38
2022-08-08T19:00:20.494Z,22.28
2022-08-08T19:02:57.098Z,21.99
2022-08-08T19:05:30.715Z,22.11
2022-08-08T19:08:04.175Z,22.02
2022-08-08T19:10:32.318Z,22.13
2022-08-08T19:13:03.588Z,22.03
2022-08-08T19:15:40.327Z,22.02
2022-08-08T19:18:33.502Z,21.95
2022-08-08T19:20:59.099Z,21.45
2022-08-08T19:23:27.503Z,21.61
2022-08-08T19:26:20.060Z,21.33
2022-08-08T19:28:44.565Z,21.49
2022-08-08T19:31:17.012Z,21.41
2022-08-08T19:34:04.572Z,21.18
2022-08-08T19:36:33.948Z,21.11
2022-08-08T19:39:02.118Z,20.98
2022-08-08T19:41:33.620Z,20.95
2022-08-08T19:44:12.546Z,20.89
2022-08-08T19:46:43.013Z,20.46
2022-08-08T19:49:13.389Z,20.87
2022-08-08T19:51:43.393Z,20.73
2022-08-08T19:54:12.425Z,20.72
2022-08-08T19:56:48.663Z,20.59
2022-08-08T19:59:22.634Z,20.72
2022-08-08T20:02:02.420Z,20.67
2022-08-08T20:04:32.123Z,20.70
2022-08-08T20:07:05.583Z,20.73
2022-08-08T20:09:55.946Z,20.63
2022-08-08T20:12:32.321Z,20.13
2022-08-08T20:15:14.715Z,20.44
2022-08-08T20:17:48.781Z,19.94
2022-08-08T20:20:20.501Z,20.12
2022-08-08T20:22:53.722Z,19.97
2022-08-08T20:25:22.696Z,19.86
2022-08-08T20:27:54.214Z,19.80
2022-08-08T20:30:56.005Z,19.18
2022-08-08T20:35:59.505Z,19.58
2022-08-08T20:38:32.792Z,19.31
2022-08-08T20:41:15.407Z,19.42
2022-08-08T20:43:49.581Z,19.38
2022-08-08T20:46:20.242Z,19.34
2022-08-08T20:48:52.158Z,18.76
2022-08-08T20:51:21.228Z,18.91
2022-08-08T20:54:00.109Z,18.90
2022-08-08T20:56:34.999Z,19.20
2022-08-08T20:59:09.245Z,19.02
2022-08-08T21:02:06.026Z,19.25
2022-08-08T21:04:28.228Z,19.30
2022-08-08T21:06:56.178Z,19.45
2022-08-08T21:09:24.267Z,19.43
2022-08-08T21:12:03.098Z,18.34
2022-08-08T21:14:34.603Z,19.27
2022-08-08T21:17:06.199Z,19.25
2022-08-08T21:19:45.925Z,19.20
2022-08-08T21:22:16.116Z,18.78
2022-08-08T21:24:52.839Z,18.34
2022-08-08T21:27:38.638Z,18.82
2022-08-08T21:30:18.898Z,18.92
2022-08-08T21:32:52.522Z,18.88
2022-08-08T21:36:14.299Z,18.62
2022-08-08T21:38:17.099Z,17.89
2022-08-08T21:40:54.640Z,18.80
2022-08-08T21:43:25.617Z,18.74
2022-08-08T21:48:02.153Z,18.71
2022-08-08T21:48:51.292Z,18.72
2022-08-08T21:54:17.781Z,18.67
2022-08-08T21:54:32.567Z,18.81
2022-08-08T21:57:00.070Z,18.57
2022-08-08T22:00:01.825Z,18.98
2022-08-08T22:02:19.392Z,18.88
2022-08-08T22:04:52.904Z,18.92
2022-08-08T22:07:26.044Z,18.93
2022-08-08T22:10:09.950Z,18.80
2022-08-08T22:12:47.190Z,18.57
2022-08-08T22:15:15.672Z,18.71
2022-08-08T22:17:45.838Z,18.63
2022-08-08T22:20:19.042Z,18.69
2022-08-08T22:22:53.590Z,18.33
2022-08-08T22:25:25.762Z,18.37
2022-08-08T22:28:00.991Z,18.28
2022-08-08T22:30:33.530Z,17.17
2022-08-08T22:33:01.880Z,17.68
2022-08-08T22:36:04.720Z,18.25
2022-08-08T22:38:20.368Z,18.17
2022-08-08T22:40:49.311Z,17.99
2022-08-08T22:43:17.707Z,17.99
2022-08-08T22:45:46.577Z,17.96
2022-08-08T22:48:21.540Z,18.01
2022-08-08T22:50:50.185Z,17.92
2022-08-08T22:54:30.865Z,17.07
2022-08-08T22:56:09.360Z,17.95
2022-08-08T22:58:38.044Z,17.75
2022-08-08T23:02:01.153Z,17.74
2022-08-08T23:03:57.105Z,17.50
2022-08-08T23:06:25.703Z,17.43
2022-08-08T23:09:00.058Z,17.55
2022-08-08T23:11:30.843Z,16.66
2022-08-08T23:14:18.553Z,17.49
2022-08-08T23:16:57.860Z,17.47
2022-08-08T23:19:32.113Z,17.33
2022-08-08T23:22:01.831Z,17.31
2022-08-08T23:24:36.408Z,17.50
2022-08-08T23:27:06.351Z,17.46
2022-08-08T23:29:34.909Z,17.41
2022-08-08T23:32:04.698Z,17.25
2022-08-08T23:34:34.159Z,17.21
2022-08-08T23:37:02.665Z,17.25
2022-08-08T23:39:41.839Z,17.26
2022-08-08T23:42:21.485Z,17.03
2022-08-08T23:44:50.041Z,17.06
2022-08-08T23:49:01.115Z,16.39
2022-08-08T23:50:30.152Z,16.63
2022-08-08T23:53:03.540Z,16.40
2022-08-08T23:55:42.186Z,17.00
2022-08-08T23:58:32.242Z,16.98
